Time;durP1;ratioP1;P1;durP2;ratioP2;P2;SDS_P1;SDS_P2;PMS_P1;PMS_P2;Temp;Humidity;BMP_temperature;BMP_pressure;BME280_temperature;BME280_humidity;BME280_pressure;Samples;Min_cycle;Max_cycle;Signal;HPM_P1;HPM_P2
2023/09/02 00:04:49;;;;;;;;;;;;;;;15.06;100.00;95917.34;10545078;28;1996;-77
2023/09/02 00:09:52;;;;;;;;;;;;;;;15.21;100.00;95917.06;10564513;28;1448;-77
2023/09/02 00:14:54;;;;;;;;;;;;;;;15.11;100.00;95919.94;10556487;28;1381;-77
2023/09/02 00:19:58;;;;;;;;;;;;;;;14.94;100.00;95920.50;10543369;28;1136;-76
2023/09/02 00:25:00;;;;;;;;;;;;;;;14.86;100.00;95921.19;10543208;28;2339;-76
2023/09/02 00:30:02;;;;;;;;;;;;;;;14.79;100.00;95920.78;10551023;28;1385;-76
2023/09/02 00:35:05;;;;;;;;;;;;;;;14.70;100.00;95925.28;10548781;28;1456;-76
2023/09/02 00:40:09;;;;;;;;;;;;;;;14.64;100.00;95931.88;10553097;28;1007;-76
2023/09/02 00:45:11;;;;;;;;;;;;;;;14.56;100.00;95942.25;10530159;28;4762;-77
2023/09/02 00:50:14;;;;;;;;;;;;;;;14.48;100.00;95937.50;10549693;28;1092;-76
2023/09/02 00:55:16;;;;;;;;;;;;;;;14.46;100.00;95942.41;10543357;28;1412;-78
2023/09/02 01:00:20;;;;;;;;;;;;;;;14.36;100.00;95936.31;10554419;28;1488;-78
2023/09/02 01:05:23;;;;;;;;;;;;;;;14.29;100.00;95944.78;10547617;28;1942;-76
2023/09/02 01:10:25;;;;;;;;;;;;;;;14.26;100.00;95929.19;10538169;28;1114;-76
2023/09/02 01:15:28;;;;;;;;;;;;;;;14.21;100.00;95935.44;10551831;28;1544;-76
2023/09/02 01:20:30;;;;;;;;;;;;;;;14.23;100.00;95933.25;10537964;28;2269;-79
2023/09/02 01:25:32;;;;;;;;;;;;;;;14.25;100.00;95947.28;10545243;28;1921;-78
2023/09/02 01:30:36;;;;;;;;;;;;;;;14.25;100.00;95943.75;10534600;28;1667;-76
2023/09/02 01:35:38;;;;;;;;;;;;;;;14.23;100.00;95943.25;10538016;28;1517;-77
2023/09/02 01:40:41;;;;;;;;;;;;;;;14.16;100.00;95950.94;10537686;28;4536;-77
2023/09/02 01:45:43;;;;;;;;;;;;;;;14.13;100.00;95948.81;10546517;28;1437;-76
2023/09/02 01:50:46;;;;;;;;;;;;;;;14.08;100.00;95952.41;10550025;28;1208;-78
2023/09/02 01:55:48;;;;;;;;;;;;;;;13.99;100.00;95952.22;10549247;28;1484;-77
2023/09/02 02:00:52;;;;;;;;;;;;;;;14.05;100.00;95952.97;10553074;28;1910;-77
2023/09/02 02:05:55;;;;;;;;;;;;;;;13.97;100.00;95946.31;10566223;27;990;-77
2023/09/02 02:10:57;;;;;;;;;;;;;;;13.90;100.00;95939.66;10541958;28;1675;-77
2023/09/02 02:16:00;;;;;;;;;;;;;;;13.84;100.00;95944.31;10533626;28;2257;-77
2023/09/02 02:21:02;;;;;;;;;;;;;;;13.89;100.00;95954.28;10553935;28;1977;-77
2023/09/02 02:26:04;;;;;;;;;;;;;;;13.86;100.00;95954.84;10549934;28;1600;-77
2023/09/02 02:31:07;;;;;;;;;;;;;;;13.85;100.00;95958.63;10544200;28;1449;-77
2023/09/02 02:36:09;;;;;;;;;;;;;;;13.88;100.00;95953.47;10548655;28;1055;-77
2023/09/02 02:41:12;;;;;;;;;;;;;;;13.82;100.00;95954.63;10545855;28;4477;-77
2023/09/02 02:46:14;;;;;;;;;;;;;;;13.78;100.00;95959.00;10544703;28;1517;-78
2023/09/02 02:51:17;;;;;;;;;;;;;;;13.83;100.00;95963.53;10562079;28;1152;-77
2023/09/02 02:56:19;;;;;;;;;;;;;;;13.76;100.00;95955.78;10542879;28;1489;-78
2023/09/02 03:01:21;;;;;;;;;;;;;;;13.71;100.00;95959.34;10556938;28;1915;-78
2023/09/02 03:06:24;;;;;;;;;;;;;;;13.80;100.00;95954.09;10542012;28;1426;-78
2023/09/02 03:11:26;;;;;;;;;;;;;;;13.76;100.00;95951.19;10555919;28;959;-78
2023/09/02 03:16:28;;;;;;;;;;;;;;;13.73;100.00;95956.34;10551319;28;2610;-76
2023/09/02 03:21:31;;;;;;;;;;;;;;;13.69;100.00;95960.75;10548804;28;2128;-77
2023/09/02 03:26:33;;;;;;;;;;;;;;;13.71;100.00;95959.34;10549896;28;1340;-76
2023/09/02 03:31:35;;;;;;;;;;;;;;;13.66;100.00;95970.19;10553338;28;1357;-77
2023/09/02 03:36:38;;;;;;;;;;;;;;;13.61;100.00;95974.84;10541874;28;1046;-78
2023/09/02 03:41:40;;;;;;;;;;;;;;;13.62;100.00;95968.38;10552734;28;1906;-77
2023/09/02 03:46:43;;;;;;;;;;;;;;;13.57;100.00;95958.44;10541818;28;1587;-77
2023/09/02 03:51:45;;;;;;;;;;;;;;;13.65;100.00;95959.69;10533558;28;1432;-77
2023/09/02 03:56:48;;;;;;;;;;;;;;;13.61;100.00;95955.94;10538263;28;1059;-76
2023/09/02 04:01:50;;;;;;;;;;;;;;;13.59;100.00;95963.53;10552873;28;1914;-76
2023/09/02 04:06:52;;;;;;;;;;;;;;;13.50;100.00;95969.59;10535782;28;1301;-76
2023/09/02 04:11:55;;;;;;;;;;;;;;;13.37;100.00;95970.28;10558140;28;2391;-76
2023/09/02 04:16:57;;;;;;;;;;;;;;;13.42;100.00;95988.28;10549211;28;1657;-76
2023/09/02 04:22:00;;;;;;;;;;;;;;;13.37;100.00;95986.47;10548763;28;1906;-76
2023/09/02 04:27:02;;;;;;;;;;;;;;;13.40;100.00;95990.47;10549592;28;1201;-75
2023/09/02 04:32:05;;;;;;;;;;;;;;;13.46;100.00;96000.16;10539642;28;1812;-76
2023/09/02 04:37:07;;;;;;;;;;;;;;;13.50;100.00;95993.09;10554859;28;1377;-75
2023/09/02 04:42:10;;;;;;;;;;;;;;;13.48;100.00;95990.66;10546542;28;4532;-76
2023/09/02 04:47:12;;;;;;;;;;;;;;;13.51;100.00;96002.78;10545732;28;1128;-77
2023/09/02 04:52:15;;;;;;;;;;;;;;;13.55;100.00;96005.72;10543766;28;1433;-76
2023/09/02 04:57:17;;;;;;;;;;;;;;;13.66;100.00;96001.81;10547176;28;1356;-75
2023/09/02 05:02:21;;;;;;;;;;;;;;;13.94;100.00;96006.38;10554458;28;1993;-76
2023/09/02 05:07:24;;;;;;;;;;;;;;;14.25;100.00;96011.34;10563927;27;2454;-76
2023/09/02 05:12:27;;;;;;;;;;;;;;;14.60;100.00;96002.78;10543172;28;1845;-77
2023/09/02 05:17:29;;;;;;;;;;;;;;;14.94;100.00;96003.63;10544394;28;1095;-77
2023/09/02 05:22:31;;;;;;;;;;;;;;;15.35;100.00;96001.03;10543920;28;1914;-77
2023/09/02 05:27:36;;;;;;;;;;;;;;;15.92;100.00;95993.50;10549108;28;1361;-76
2023/09/02 05:32:38;;;;;;;;;;;;;;;16.56;100.00;95986.16;10554385;28;1308;-77
2023/09/02 05:37:41;;;;;;;;;;;;;;;17.05;100.00;95980.94;10532451;28;1559;-77
2023/09/02 05:42:43;;;;;;;;;;;;;;;17.25;100.00;95980.44;10535172;28;4770;-78
2023/09/02 05:47:46;;;;;;;;;;;;;;;17.66;100.00;95984.81;10526334;28;1341;-78
2023/09/02 05:52:48;;;;;;;;;;;;;;;17.83;100.00;95980.25;10530210;28;1339;-77
2023/09/02 05:57:51;;;;;;;;;;;;;;;17.48;100.00;95987.44;10545721;28;1420;-77
2023/09/02 06:02:53;;;;;;;;;;;;;;;17.15;100.00;96003.22;10532344;28;2419;-76
2023/09/02 06:07:55;;;;;;;;;;;;;;;17.29;100.00;96003.16;10538591;28;1568;-78
2023/09/02 06:12:58;;;;;;;;;;;;;;;17.79;100.00;96000.25;10541060;28;1650;-77
2023/09/02 06:18:00;;;;;;;;;;;;;;;18.07;100.00;95996.19;10542074;28;1136;-76
2023/09/02 06:23:03;;;;;;;;;;;;;;;18.56;100.00;96001.53;10551540;28;1902;-76
2023/09/02 06:28:05;;;;;;;;;;;;;;;18.79;100.00;95994.88;10553675;28;1358;-77
2023/09/02 06:33:07;;;;;;;;;;;;;;;18.89;100.00;95985.56;10550541;28;1027;-76
2023/09/02 06:38:10;;;;;;;;;;;;;;;19.27;100.00;95993.06;10541405;28;1474;-77
2023/09/02 06:43:12;;;;;;;;;;;;;;;19.78;100.00;95992.13;10551388;28;1914;-77
2023/09/02 06:48:15;;;;;;;;;;;;;;;19.95;100.00;95985.81;10556196;28;1424;-77
2023/09/02 06:53:17;;;;;;;;;;;;;;;19.98;100.00;96007.78;10562291;28;1232;-77
2023/09/02 06:58:20;;;;;;;;;;;;;;;20.15;100.00;96006.91;10551582;28;2354;-76
2023/09/02 07:03:22;;;;;;;;;;;;;;;20.11;100.00;96008.69;10548990;28;1909;-78
2023/09/02 07:08:25;;;;;;;;;;;;;;;20.25;100.00;96008.47;10551359;28;1500;-77
2023/09/02 07:13:27;;;;;;;;;;;;;;;20.61;100.00;96007.94;10544257;28;1497;-77
2023/09/02 07:18:30;;;;;;;;;;;;;;;20.79;100.00;96003.16;10563863;28;995;-78
2023/09/02 07:23:32;;;;;;;;;;;;;;;21.18;100.00;95993.63;10551120;28;1905;-77
2023/09/02 07:28:36;;;;;;;;;;;;;;;21.05;100.00;96001.00;10548849;28;1534;-78
2023/09/02 07:33:39;;;;;;;;;;;;;;;21.15;100.00;96001.72;10533918;28;1031;-77
2023/09/02 07:38:41;;;;;;;;;;;;;;;21.72;100.00;95995.53;10549911;28;1342;-78
2023/09/02 07:43:44;;;;;;;;;;;;;;;21.78;100.00;96003.19;10548767;28;4512;-78
2023/09/02 07:48:49;;;;;;;;;;;;;;;22.22;100.00;96002.69;10549808;28;1051;-78
2023/09/02 07:53:51;;;;;;;;;;;;;;;22.27;100.00;96007.94;10539568;28;2471;-78
2023/09/02 07:58:54;;;;;;;;;;;;;;;22.52;100.00;96012.25;10544415;28;1606;-76
2023/09/02 08:03:56;;;;;;;;;;;;;;;22.52;100.00;96006.78;10554620;28;1964;-78
2023/09/02 08:08:58;;;;;;;;;;;;;;;22.70;100.00;96017.47;10545718;28;1389;-78
2023/09/02 08:14:01;;;;;;;;;;;;;;;22.37;100.00;96011.00;10547074;28;1417;-77
2023/09/02 08:19:03;;;;;;;;;;;;;;;22.84;100.00;96015.13;10537942;28;1019;-77
2023/09/02 08:24:05;;;;;;;;;;;;;;;22.60;100.00;96019.53;10545923;28;1894;-77
2023/09/02 08:29:08;;;;;;;;;;;;;;;23.03;100.00;96020.84;10547879;28;1415;-77
2023/09/02 08:34:11;;;;;;;;;;;;;;;23.42;100.00;96026.66;10553873;28;1134;-77
2023/09/02 08:39:13;;;;;;;;;;;;;;;23.72;100.00;96022.38;10551357;28;1416;-77
2023/09/02 08:44:16;;;;;;;;;;;;;;;23.87;100.00;96026.31;10531506;28;4528;-77
2023/09/02 08:49:18;;;;;;;;;;;;;;;23.42;100.00;96032.13;10543923;28;2867;-76
2023/09/02 08:54:20;;;;;;;;;;;;;;;23.56;100.00;96038.00;10543428;28;1389;-78
2023/09/02 08:59:23;;;;;;;;;;;;;;;23.30;100.00;96041.22;10538361;28;1373;-78
2023/09/02 09:04:27;;;;;;;;;;;;;;;23.38;100.00;96042.19;10544855;28;1938;-76
2023/09/02 09:09:29;;;;;;;;;;;;;;;23.74;100.00;96041.25;10546873;28;1397;-77
2023/09/02 09:14:32;;;;;;;;;;;;;;;23.68;100.00;96051.69;10534271;28;1385;-77
2023/09/02 09:19:34;;;;;;;;;;;;;;;24.10;100.00;96045.72;10549440;28;1260;-77
2023/09/02 09:24:36;;;;;;;;;;;;;;;24.30;100.00;96037.56;10548887;28;1990;-77
2023/09/02 09:29:39;;;;;;;;;;;;;;;24.35;100.00;96037.31;10546340;28;1393;-77
2023/09/02 09:34:41;;;;;;;;;;;;;;;24.52;100.00;96035.00;10546859;28;1098;-77
2023/09/02 09:39:44;;;;;;;;;;;;;;;24.44;100.00;96037.94;10537222;28;1563;-77
2023/09/02 09:44:46;;;;;;;;;;;;;;;24.71;100.00;96042.50;10542796;28;4778;-77
2023/09/02 09:49:50;;;;;;;;;;;;;;;24.94;100.00;96039.06;10544489;28;2494;-77
2023/09/02 09:54:53;;;;;;;;;;;;;;;24.95;100.00;96041.47;10542292;28;1497;-77
2023/09/02 09:59:56;;;;;;;;;;;;;;;24.83;100.00;96041.59;10549351;28;1672;-79
2023/09/02 10:04:59;;;;;;;;;;;;;;;24.72;100.00;96035.84;10541992;28;1922;-78
2023/09/02 10:10:01;;;;;;;;;;;;;;;24.99;100.00;96027.78;10545528;28;1474;-76
2023/09/02 10:15:04;;;;;;;;;;;;;;;24.84;100.00;96036.88;10546858;28;1360;-77
2023/09/02 10:20:07;;;;;;;;;;;;;;;24.94;100.00;96028.88;10545368;28;1396;-77
2023/09/02 10:25:10;;;;;;;;;;;;;;;24.96;100.00;96037.56;10556568;28;1910;-77
2023/09/02 10:30:13;;;;;;;;;;;;;;;25.10;100.00;96030.78;10545453;28;1385;-79
2023/09/02 10:35:16;;;;;;;;;;;;;;;24.94;100.00;96028.06;10548291;28;1095;-77
2023/09/02 10:40:19;;;;;;;;;;;;;;;25.20;100.00;96028.28;10542418;28;1381;-77
2023/09/02 10:45:21;;;;;;;;;;;;;;;25.27;100.00;96031.16;10542152;28;4714;-77
2023/09/02 10:50:24;;;;;;;;;;;;;;;25.33;100.00;96023.44;10540685;28;1364;-77
2023/09/02 10:55:27;;;;;;;;;;;;;;;25.58;100.00;96021.16;10555149;28;1168;-77
2023/09/02 11:00:29;;;;;;;;;;;;;;;26.03;100.00;96031.47;10530241;28;1460;-77
2023/09/02 11:05:32;;;;;;;;;;;;;;;25.69;100.00;96033.16;10533271;28;1902;-78
2023/09/02 11:10:34;;;;;;;;;;;;;;;25.45;100.00;96026.03;10550336;28;1426;-77
2023/09/02 11:15:37;;;;;;;;;;;;;;;25.09;100.00;96029.22;10554513;28;1400;-78
2023/09/02 11:20:39;;;;;;;;;;;;;;;24.85;100.00;96033.78;10549791;28;1329;-77
2023/09/02 11:25:42;;;;;;;;;;;;;;;24.96;100.00;96025.75;10553040;28;1918;-77
2023/09/02 11:30:44;;;;;;;;;;;;;;;25.08;100.00;96024.88;10539237;28;1450;-77
2023/09/02 11:35:47;;;;;;;;;;;;;;;25.13;100.00;96027.31;10546562;28;1361;-77
2023/09/02 11:40:49;;;;;;;;;;;;;;;25.06;100.00;96037.00;10547691;28;4591;-77
2023/09/02 11:45:51;;;;;;;;;;;;;;;25.06;100.00;96044.47;10555561;28;1985;-78
2023/09/02 11:50:54;;;;;;;;;;;;;;;25.24;100.00;96051.13;10555588;28;1485;-78
2023/09/02 11:55:57;;;;;;;;;;;;;;;25.40;100.00;96034.56;10538822;28;1572;-76
2023/09/02 12:00:59;;;;;;;;;;;;;;;25.24;100.00;96037.38;10550818;28;1420;-76
2023/09/02 12:06:02;;;;;;;;;;;;;;;25.16;100.00;96038.41;10549630;28;1955;-77
2023/09/02 12:11:04;;;;;;;;;;;;;;;24.62;100.00;96030.09;10554596;28;1326;-76
2023/09/02 12:16:07;;;;;;;;;;;;;;;24.28;100.00;96035.97;10554035;28;1359;-78
2023/09/02 12:21:09;;;;;;;;;;;;;;;24.36;100.00;96031.47;10544949;28;1157;-78
2023/09/02 12:26:13;;;;;;;;;;;;;;;24.17;100.00;96029.41;10551440;28;1984;-79
2023/09/02 12:31:15;;;;;;;;;;;;;;;24.16;100.00;96013.28;10549827;28;1414;-78
2023/09/02 12:36:18;;;;;;;;;;;;;;;24.93;100.00;96009.97;10550256;28;2451;-77
2023/09/02 12:41:20;;;;;;;;;;;;;;;25.57;100.00;96016.78;10550068;28;4586;-78
2023/09/02 12:46:23;;;;;;;;;;;;;;;25.76;100.00;96019.53;10554854;28;1976;-77
2023/09/02 12:51:28;;;;;;;;;;;;;;;25.57;100.00;96011.28;10544529;28;1035;-77
2023/09/02 12:56:31;;;;;;;;;;;;;;;25.86;100.00;96002.44;10539119;28;1591;-76
2023/09/02 13:01:33;;;;;;;;;;;;;;;25.41;100.00;96008.63;10545166;28;1389;-77
2023/09/02 13:06:36;;;;;;;;;;;;;;;26.02;98.83;96015.28;10548851;28;1921;-77
2023/09/02 13:11:38;;;;;;;;;;;;;;;25.72;100.00;96021.44;10542182;28;1075;-79
2023/09/02 13:16:41;;;;;;;;;;;;;;;25.67;100.00;96021.72;10549661;28;1376;-79
2023/09/02 13:21:43;;;;;;;;;;;;;;;26.25;95.73;96018.81;10549235;28;1039;-77
2023/09/02 13:26:46;;;;;;;;;;;;;;;26.21;97.69;96018.00;10543836;28;1918;-79
2023/09/02 13:31:49;;;;;;;;;;;;;;;26.16;100.00;96026.56;10541126;28;2420;-77
2023/09/02 13:36:51;;;;;;;;;;;;;;;25.34;100.00;96017.56;10547662;28;1589;-78
2023/09/02 13:41:54;;;;;;;;;;;;;;;25.53;100.00;96013.19;10549356;28;4532;-78
2023/09/02 13:46:57;;;;;;;;;;;;;;;25.95;99.13;96020.66;10540458;28;1995;-77
2023/09/02 13:51:59;;;;;;;;;;;;;;;25.90;100.00;96015.47;10539649;28;1366;-79
2023/09/02 13:57:01;;;;;;;;;;;;;;;25.83;100.00;96029.88;10543554;28;1043;-76
2023/09/02 14:02:04;;;;;;;;;;;;;;;25.65;98.77;96035.06;10544730;28;1786;-77
2023/09/02 14:07:06;;;;;;;;;;;;;;;25.36;100.00;96035.66;10561289;28;1980;-78
2023/09/02 14:12:09;;;;;;;;;;;;;;;25.05;100.00;96045.63;10547005;28;1409;-78
2023/09/02 14:17:11;;;;;;;;;;;;;;;24.69;100.00;96050.31;10550693;28;1161;-77
2023/09/02 14:22:14;;;;;;;;;;;;;;;25.21;100.00;96045.59;10552381;28;1321;-77
2023/09/02 14:27:17;;;;;;;;;;;;;;;24.95;100.00;96046.19;10552634;28;2273;-77
2023/09/02 14:32:20;;;;;;;;;;;;;;;24.61;100.00;96043.03;10556143;28;1741;-77
2023/09/02 14:37:22;;;;;;;;;;;;;;;25.03;100.00;96048.72;10566091;28;1821;-77
2023/09/02 14:42:25;;;;;;;;;;;;;;;25.71;100.00;96044.63;10545795;28;4497;-78
2023/09/02 14:47:27;;;;;;;;;;;;;;;25.57;100.00;96047.88;10547376;28;1899;-77
2023/09/02 14:52:30;;;;;;;;;;;;;;;25.90;98.77;96046.56;10557955;28;1420;-77
2023/09/02 14:57:32;;;;;;;;;;;;;;;25.68;100.00;96045.31;10556868;28;1353;-76
2023/09/02 15:02:34;;;;;;;;;;;;;;;25.91;100.00;96052.88;10558266;28;1119;-77
2023/09/02 15:07:37;;;;;;;;;;;;;;;25.63;99.95;96040.13;10543928;28;1886;-75
2023/09/02 15:12:39;;;;;;;;;;;;;;;25.88;98.12;96052.41;10557162;28;2064;-76
2023/09/02 15:17:42;;;;;;;;;;;;;;;25.47;98.15;96055.94;10552108;28;1035;-78
2023/09/02 15:22:45;;;;;;;;;;;;;;;25.26;99.88;96057.09;10551621;28;1382;-78
2023/09/02 15:27:47;;;;;;;;;;;;;;;24.95;100.00;96068.19;10543693;28;1921;-76
2023/09/02 15:32:49;;;;;;;;;;;;;;;24.87;100.00;96069.94;10558396;28;1521;-76
2023/09/02 15:37:52;;;;;;;;;;;;;;;24.90;100.00;96063.75;10552722;28;1514;-78
2023/09/02 15:42:54;;;;;;;;;;;;;;;24.53;100.00;96064.06;10551180;28;4584;-78
2023/09/02 15:47:57;;;;;;;;;;;;;;;24.59;100.00;96070.09;10545490;28;1917;-78
2023/09/02 15:52:59;;;;;;;;;;;;;;;24.56;100.00;96081.00;10552071;28;1540;-78
2023/09/02 15:58:02;;;;;;;;;;;;;;;24.52;100.00;96086.41;10554197;28;1513;-77
2023/09/02 16:03:04;;;;;;;;;;;;;;;24.46;100.00;96085.88;10554123;28;1663;-76
2023/09/02 16:08:07;;;;;;;;;;;;;;;24.37;100.00;96089.97;10545897;28;1977;-78
2023/09/02 16:13:09;;;;;;;;;;;;;;;24.30;100.00;96087.00;10555742;28;1381;-77
2023/09/02 16:18:11;;;;;;;;;;;;;;;24.21;100.00;96082.50;10551906;28;1176;-78
2023/09/02 16:23:14;;;;;;;;;;;;;;;24.05;100.00;96092.69;10553703;28;2445;-77
2023/09/02 16:28:16;;;;;;;;;;;;;;;23.85;100.00;96099.16;10549514;28;1976;-77
2023/09/02 16:33:19;;;;;;;;;;;;;;;23.77;100.00;96100.13;10545939;28;1457;-78
2023/09/02 16:38:22;;;;;;;;;;;;;;;23.67;100.00;96096.75;10548340;28;1545;-77
2023/09/02 16:43:24;;;;;;;;;;;;;;;23.57;100.00;96097.22;10536076;28;4717;-78
2023/09/02 16:48:26;;;;;;;;;;;;;;;23.55;100.00;96102.25;10552984;28;1980;-77
2023/09/02 16:53:29;;;;;;;;;;;;;;;23.41;100.00;96112.81;10547098;28;1389;-77
2023/09/02 16:58:33;;;;;;;;;;;;;;;23.27;100.00;96106.91;10555285;28;1433;-78
2023/09/02 17:03:36;;;;;;;;;;;;;;;23.16;100.00;96112.09;10546773;28;1035;-78
2023/09/02 17:08:38;;;;;;;;;;;;;;;23.08;100.00;96118.50;10547093;28;1973;-78
2023/09/02 17:13:41;;;;;;;;;;;;;;;22.92;100.00;96119.22;10557155;28;1401;-78
2023/09/02 17:18:43;;;;;;;;;;;;;;;22.79;100.00;96122.28;10550670;28;2609;-78
2023/09/02 17:23:45;;;;;;;;;;;;;;;22.62;100.00;96124.09;10556492;28;1583;-79
2023/09/02 17:28:48;;;;;;;;;;;;;;;22.51;100.00;96130.38;10546490;28;1894;-78
2023/09/02 17:33:50;;;;;;;;;;;;;;;22.34;100.00;96128.66;10546651;28;1458;-77
2023/09/02 17:38:54;;;;;;;;;;;;;;;22.16;100.00;96135.47;10545855;28;1454;-78
2023/09/02 17:43:56;;;;;;;;;;;;;;;22.05;100.00;96135.88;10546189;28;4528;-78
2023/09/02 17:48:59;;;;;;;;;;;;;;;21.90;100.00;96136.50;10553094;28;1917;-78
2023/09/02 17:54:01;;;;;;;;;;;;;;;21.73;100.00;96137.47;10553440;28;1424;-78
2023/09/02 17:59:04;;;;;;;;;;;;;;;21.48;100.00;96131.09;10542065;28;1385;-78
2023/09/02 18:04:06;;;;;;;;;;;;;;;21.25;100.00;96141.56;10534665;28;1075;-77
2023/09/02 18:09:08;;;;;;;;;;;;;;;21.23;100.00;96140.28;10544001;28;1959;-78
2023/09/02 18:14:11;;;;;;;;;;;;;;;21.05;100.00;96134.91;10534087;28;1438;-77
2023/09/02 18:19:13;;;;;;;;;;;;;;;20.83;100.00;96145.34;10566269;28;1392;-78
2023/09/02 18:24:15;;;;;;;;;;;;;;;20.68;100.00;96144.00;10561598;28;1151;-77
2023/09/02 18:29:18;;;;;;;;;;;;;;;20.46;100.00;96158.69;10552093;28;1991;-77
2023/09/02 18:34:20;;;;;;;;;;;;;;;20.36;100.00;96154.38;10555329;28;1003;-78
2023/09/02 18:39:25;;;;;;;;;;;;;;;20.17;100.00;96164.88;10562110;28;1432;-77
2023/09/02 18:44:29;;;;;;;;;;;;;;;20.09;100.00;96171.16;10559457;28;4603;-78
2023/09/02 18:49:31;;;;;;;;;;;;;;;20.01;100.00;96180.16;10559580;28;1922;-79
2023/09/02 18:54:34;;;;;;;;;;;;;;;19.91;100.00;96182.13;10545445;28;1360;-78
2023/09/02 18:59:36;;;;;;;;;;;;;;;19.79;100.00;96183.91;10545823;28;1461;-77
2023/09/02 19:04:39;;;;;;;;;;;;;;;19.72;100.00;96189.81;10555296;28;1006;-77
2023/09/02 19:09:41;;;;;;;;;;;;;;;19.66;100.00;96189.19;10565552;27;2356;-77
2023/09/02 19:14:44;;;;;;;;;;;;;;;19.58;100.00;96200.09;10562721;28;1526;-79
2023/09/02 19:19:47;;;;;;;;;;;;;;;19.49;100.00;96191.88;10556676;28;1428;-78
2023/09/02 19:24:49;;;;;;;;;;;;;;;19.40;100.00;96200.06;10551915;28;983;-77
2023/09/02 19:29:52;;;;;;;;;;;;;;;19.26;100.00;96207.56;10551894;28;1977;-77
2023/09/02 19:34:54;;;;;;;;;;;;;;;19.15;100.00;96209.00;10553682;28;1169;-79
2023/09/02 19:39:58;;;;;;;;;;;;;;;19.07;100.00;96221.47;10552424;28;1336;-79
2023/09/02 19:45:00;;;;;;;;;;;;;;;18.98;100.00;96217.13;10548636;28;1421;-76
2023/09/02 19:50:03;;;;;;;;;;;;;;;18.88;100.00;96221.72;10552300;28;2001;-79
2023/09/02 19:55:05;;;;;;;;;;;;;;;18.80;100.00;96227.97;10550315;28;1437;-79
2023/09/02 20:00:09;;;;;;;;;;;;;;;18.68;100.00;96226.94;10544671;28;1388;-78
2023/09/02 20:05:11;;;;;;;;;;;;;;;18.73;100.00;96235.78;10545600;28;2459;-77
2023/09/02 20:10:16;;;;;;;;;;;;;;;18.59;100.00;96251.41;10559127;28;1921;-77
2023/09/02 20:15:18;;;;;;;;;;;;;;;18.45;100.00;96247.94;10558516;28;1424;-78
2023/09/02 20:20:20;;;;;;;;;;;;;;;18.37;100.00;96246.78;10547417;28;1353;-79
2023/09/02 20:25:23;;;;;;;;;;;;;;;18.37;100.00;96255.75;10540711;28;1033;-78
2023/09/02 20:30:25;;;;;;;;;;;;;;;18.27;100.00;96261.47;10537719;28;1961;-77
2023/09/02 20:35:28;;;;;;;;;;;;;;;18.27;100.00;96266.91;10551605;28;1211;-77
2023/09/02 20:40:30;;;;;;;;;;;;;;;18.18;100.00;96268.75;10551268;28;1417;-78
2023/09/02 20:45:32;;;;;;;;;;;;;;;18.15;100.00;96263.16;10530732;28;4912;-77
2023/09/02 20:50:35;;;;;;;;;;;;;;;18.07;100.00;96267.41;10523622;28;1922;-77
2023/09/02 20:55:38;;;;;;;;;;;;;;;18.01;100.00;96263.22;10545596;28;903;-78
2023/09/02 21:00:40;;;;;;;;;;;;;;;17.94;100.00;96269.09;10552215;28;2322;-78
2023/09/02 21:05:43;;;;;;;;;;;;;;;17.86;100.00;96275.25;10547452;28;1980;-78
2023/09/02 21:10:45;;;;;;;;;;;;;;;17.78;100.00;96293.09;10551339;28;1343;-78
2023/09/02 21:15:48;;;;;;;;;;;;;;;17.91;100.00;96285.19;10547764;28;1400;-78
2023/09/02 21:20:50;;;;;;;;;;;;;;;17.79;100.00;96302.84;10532198;28;1613;-78
2023/09/02 21:25:53;;;;;;;;;;;;;;;17.76;100.00;96308.94;10550227;28;2013;-78
2023/09/02 21:30:55;;;;;;;;;;;;;;;17.78;100.00;96303.97;10541836;28;1475;-78
2023/09/02 21:35:58;;;;;;;;;;;;;;;17.80;100.00;96312.63;10561871;27;1472;-78
2023/09/02 21:41:00;;;;;;;;;;;;;;;17.66;100.00;96309.09;10541858;28;1181;-78
2023/09/02 21:46:02;;;;;;;;;;;;;;;17.69;100.00;96310.44;10541218;28;1910;-77
2023/09/02 21:51:05;;;;;;;;;;;;;;;17.75;100.00;96309.22;10549261;28;1156;-78
2023/09/02 21:56:08;;;;;;;;;;;;;;;17.57;100.00;96308.22;10554073;28;1400;-77
2023/09/02 22:01:10;;;;;;;;;;;;;;;17.54;100.00;96319.69;10548185;28;2416;-77
2023/09/02 22:06:13;;;;;;;;;;;;;;;17.51;100.00;96318.41;10558880;28;1918;-76
2023/09/02 22:11:16;;;;;;;;;;;;;;;17.32;100.00;96322.34;10558091;28;971;-76
2023/09/02 22:16:18;;;;;;;;;;;;;;;17.19;100.00;96322.06;10544012;28;1563;-78
2023/09/02 22:21:22;;;;;;;;;;;;;;;17.20;100.00;96312.78;10546693;28;1322;-78
2023/09/02 22:26:24;;;;;;;;;;;;;;;17.12;100.00;96318.94;10545657;28;1977;-77
2023/09/02 22:31:27;;;;;;;;;;;;;;;17.34;100.00;96314.69;10550769;28;1651;-78
2023/09/02 22:36:29;;;;;;;;;;;;;;;17.13;100.00;96315.13;10543285;28;1325;-78
2023/09/02 22:41:32;;;;;;;;;;;;;;;17.05;100.00;96310.41;10545049;28;4584;-78
2023/09/02 22:46:34;;;;;;;;;;;;;;;16.87;100.00;96319.44;10554082;28;1913;-78
2023/09/02 22:51:36;;;;;;;;;;;;;;;16.95;100.00;96318.72;10556824;28;1072;-77
2023/09/02 22:56:39;;;;;;;;;;;;;;;17.00;100.00;96327.59;10550343;28;2437;-77
2023/09/02 23:01:41;;;;;;;;;;;;;;;17.23;100.00;96314.09;10545452;28;1619;-78
2023/09/02 23:06:44;;;;;;;;;;;;;;;16.97;100.00;96321.94;10535294;28;1977;-78
2023/09/02 23:11:46;;;;;;;;;;;;;;;16.72;100.00;96309.63;10550143;28;1329;-78
2023/09/02 23:16:49;;;;;;;;;;;;;;;16.59;100.00;96316.63;10552577;28;1527;-77
2023/09/02 23:21:51;;;;;;;;;;;;;;;16.60;100.00;96318.22;10554162;28;1050;-78
2023/09/02 23:26:55;;;;;;;;;;;;;;;16.62;100.00;96321.47;10551233;28;1910;-79
2023/09/02 23:31:58;;;;;;;;;;;;;;;16.66;100.00;96314.31;10554187;28;1821;-79
2023/09/02 23:37:00;;;;;;;;;;;;;;;16.51;100.00;96319.22;10541536;28;1087;-78
2023/09/02 23:42:03;;;;;;;;;;;;;;;16.55;100.00;96310.19;10554715;28;4650;-78
2023/09/02 23:47:05;;;;;;;;;;;;;;;16.55;100.00;96310.19;10570420;27;1910;-77
2023/09/02 23:52:09;;;;;;;;;;;;;;;16.61;100.00;96317.16;10554788;28;2480;-77
2023/09/02 23:57:11;;;;;;;;;;;;;;;16.61;100.00;96313.63;10555231;28;1473;-78
